Duke — WDG9333 — position and weather

sailwx.info

Track history (hours):
 
Tides and Currents Weather Stations Pressure Air Temp Water Temp Dewpoint Dewpoint Depression Visibility Wind Speed Wind Dir Waves Ship Positions

Duke

Owner: Harley Marine Services, Inc, Seattle, WA. More information available from US FCC via Universal Licensing System and Coast Guard Vessel Documentation Center.

Last reported at 2018-Feb-19 14:00 UTC. Time now 2018-Feb-19 14:17 UTC.
Position N 29°24' W 094°45'.

Length 26 m; draft 2.6 m.

Type: Ship (hazmat cat A). MMSI: 367586750.

Date/timePositionNaut miles runAvg speedWind from/ knotsBaromVisibWave heightAir tempDewpointWater temp
2018-Feb-19 14:00N 29°24' W 094°45'0 0.0
2018-Feb-19 13:30N 29°24' W 094°45'0 0.1
2018-Feb-19 13:00N 29°24' W 094°45'0 0.1
2018-Feb-19 12:30N 29°24' W 094°45'0 0.0
2018-Feb-19 11:59N 29°24' W 094°45'0 0.0
2018-Feb-19 11:30N 29°24' W 094°45'0 0.0
2018-Feb-19 10:59N 29°24' W 094°45'0 0.0
2018-Feb-19 10:29N 29°24' W 094°45'0 0.0
2018-Feb-19 10:00N 29°24' W 094°45'0 0.0
2018-Feb-19 09:30N 29°24' W 094°45'0 0.0
2018-Feb-19 09:00N 29°24' W 094°45'0 0.3
2018-Feb-19 08:29N 29°24' W 094°45'2 3.6
2018-Feb-19 08:00N 29°23' W 094°46'0 0.0
2018-Feb-19 07:30N 29°23' W 094°46'0 0.0
2018-Feb-19 07:00N 29°23' W 094°46'0 0.0
2018-Feb-19 06:29N 29°23' W 094°46'0 0.0
2018-Feb-19 05:57N 29°23' W 094°46'0 0.0
2018-Feb-19 05:30N 29°23' W 094°46'0 0.0
2018-Feb-19 05:01N 29°23' W 094°46'0 0.0
2018-Feb-19 04:30N 29°23' W 094°46'0 0.0
2018-Feb-19 03:59N 29°23' W 094°46'0 0.0
2018-Feb-19 00:11N 29°23' W 094°46'1 3.6
2018-Feb-18 23:56N 29°24' W 094°45'1 1.7
2018-Feb-18 23:21N 29°24' W 094°44'2 3.0
2018-Feb-18 22:43N 29°26' W 094°43'2 4.7
2018-Feb-18 22:16N 29°27' W 094°41'4 3.9
2018-Feb-18 21:17N 29°29' W 094°37'1 3.7
2018-Feb-18 20:58N 29°29' W 094°36'2 3.8
2018-Feb-18 20:26N 29°30' W 094°34'2 3.8
2018-Feb-18 19:51N 29°31' W 094°31'1 3.9
2018-Feb-18 19:29N 29°31' W 094°30'2 3.7
2018-Feb-18 19:00N 29°33' W 094°28'1 1.9
2018-Feb-18 18:28N 29°33' W 094°28'0 0.1
2018-Feb-18 18:00N 29°33' W 094°28'0 0.0
2018-Feb-18 17:30N 29°33' W 094°28'0 0.1
2018-Feb-18 17:01N 29°33' W 094°28'0 0.2
2018-Feb-18 16:30N 29°33' W 094°28'0 0.3
2018-Feb-18 16:00N 29°34' W 094°28'0 0.1
2018-Feb-18 15:30N 29°34' W 094°28'0 0.0
2018-Feb-18 15:00N 29°34' W 094°28'0 0.0
2018-Feb-18 14:30N 29°34' W 094°28'0 0.0
2018-Feb-18 13:58N 29°34' W 094°28'0 0.0
2018-Feb-18 13:29N 29°34' W 094°28'0 0.1
2018-Feb-18 12:58N 29°34' W 094°28'0 0.0
2018-Feb-18 12:29N 29°34' W 094°28'0 0.0
2018-Feb-18 11:55N 29°34' W 094°28'0 0.0
2018-Feb-18 11:30N 29°34' W 094°28'0 0.0
2018-Feb-18 10:58N 29°34' W 094°28'0 0.0
2018-Feb-18 10:27N 29°34' W 094°28'0 0.0
2018-Feb-18 10:00N 29°34' W 094°28'0 0.2
2018-Feb-18 09:30N 29°34' W 094°27'0 0.0
2018-Feb-18 08:58N 29°34' W 094°27'0 0.1
2018-Feb-18 08:29N 29°34' W 094°27'0 0.0
2018-Feb-18 08:00N 29°34' W 094°27'0 0.0
2018-Feb-18 07:30N 29°34' W 094°27'0 0.0
2018-Feb-18 07:00N 29°34' W 094°27'0 0.0
2018-Feb-18 06:30N 29°34' W 094°27'0 0.0
2018-Feb-18 03:08N 29°34' W 094°27'0 0.0
2018-Feb-18 02:56N 29°34' W 094°27'0 0.0
2018-Feb-18 02:30N 29°34' W 094°27'0 0.0
2018-Feb-18 02:00N 29°34' W 094°27'0 0.1
2018-Feb-18 01:25N 29°34' W 094°27'1 2.6
2018-Feb-18 01:00N 29°34' W 094°26'2 3.0
2018-Feb-18 00:28N 29°35' W 094°25'1 3.1
2018-Feb-18 00:00N 29°36' W 094°23'0 0.2
2018-Feb-17 23:31N 29°36' W 094°24'0 0.0
2018-Feb-17 23:00N 29°36' W 094°24'0 0.1
2018-Feb-17 22:30N 29°36' W 094°24'0 0.1
2018-Feb-17 22:00N 29°36' W 094°23'0 0.0
2018-Feb-17 21:30N 29°36' W 094°23'1 1.9
2018-Feb-17 20:59N 29°36' W 094°22'0 0.8
2018-Feb-17 20:30N 29°36' W 094°22'1 2.3
2018-Feb-17 20:00N 29°37' W 094°21'0 0.2
2018-Feb-17 19:30N 29°37' W 094°21'0 0.0
2018-Feb-17 19:00N 29°37' W 094°21'0 0.0
2018-Feb-17 18:30N 29°37' W 094°21'0 0.6
2018-Feb-17 18:00N 29°37' W 094°20'0 0.1
2018-Feb-17 17:30N 29°37' W 094°20'0 0.0
2018-Feb-17 16:57N 29°37' W 094°20'0 0.0
2018-Feb-17 16:30N 29°37' W 094°20'1 2.0
2018-Feb-17 16:00N 29°38' W 094°19'3 5.4
2018-Feb-17 15:30N 29°39' W 094°17'2 3.9
2018-Feb-17 15:00N 29°40' W 094°15'0 0.0
2018-Feb-17 14:30N 29°40' W 094°15'0 0.0
2018-Feb-17 14:00N 29°40' W 094°15'0 0.1
2018-Feb-17 13:30N 29°40' W 094°15'0 0.0
2018-Feb-17 13:01N 29°40' W 094°15'0 0.0
2018-Feb-17 12:30N 29°40' W 094°15'0 0.0
2018-Feb-17 12:00N 29°40' W 094°15'0 0.0
2018-Feb-17 11:29N 29°40' W 094°15'0 0.0
2018-Feb-17 10:59N 29°40' W 094°15'0 0.0
2018-Feb-17 10:30N 29°40' W 094°15'0 0.0
2018-Feb-17 10:00N 29°40' W 094°15'0 0.0
2018-Feb-17 09:30N 29°40' W 094°15'0 0.0
2018-Feb-17 09:00N 29°40' W 094°15'0 0.0
2018-Feb-17 08:30N 29°40' W 094°15'0 0.0
2018-Feb-17 08:00N 29°40' W 094°15'0 0.0
2018-Feb-17 07:30N 29°40' W 094°15'0 0.0
2018-Feb-17 07:00N 29°40' W 094°15'0 0.0
2018-Feb-17 06:30N 29°40' W 094°15'0 0.0
2018-Feb-17 05:59N 29°40' W 094°15'0 0.0
2018-Feb-17 05:30N 29°40' W 094°15'0 0.0
2018-Feb-17 04:55N 29°40' W 094°15'0 0.0
2018-Feb-17 04:30N 29°40' W 094°15'0 0.3
2018-Feb-17 04:00N 29°40' W 094°14'0 0.0
2018-Feb-17 03:30N 29°40' W 094°14'0 0.4
2018-Feb-17 03:00N 29°40' W 094°14'0 0.2
2018-Feb-17 02:29N 29°40' W 094°14'0 0.2
2018-Feb-17 02:00N 29°40' W 094°14'2 3.7
2018-Feb-17 01:30N 29°41' W 094°12'2 4.7
2018-Feb-17 01:00N 29°41' W 094°10'2 5.0
2018-Feb-17 00:30N 29°43' W 094°07'3 5.3
2018-Feb-17 00:00N 29°45' W 094°05'3 5.3
2018-Feb-16 23:30N 29°46' W 094°03'3 5.2
2018-Feb-16 23:00N 29°48' W 094°00'2 4.9
2018-Feb-16 22:30N 29°49' W 093°58'4 7.3
2018-Feb-16 22:01N 29°52' W 093°56'4 8.1
2018-Feb-16 21:30N 29°56' W 093°53'4 7.1
2018-Feb-16 21:00N 29°58' W 093°50'4 7.5
2018-Feb-16 20:30N 29°60' W 093°46'4 7.4
2018-Feb-16 20:00N 30°03' W 093°44'3 6.4
2018-Feb-16 19:30N 30°04' W 093°40'3 6.2
2018-Feb-16 19:00N 30°04' W 093°37'2 4.7
2018-Feb-16 18:30N 30°04' W 093°34'2 5.1
2018-Feb-16 18:00N 30°04' W 093°31'3 5.2
2018-Feb-16 17:30N 30°04' W 093°28'3 5.0
2018-Feb-16 17:00N 30°04' W 093°25'2 5.0
2018-Feb-16 16:30N 30°04' W 093°22'2 3.8
2018-Feb-16 16:00N 30°05' W 093°20'2 4.4
2018-Feb-16 15:30N 30°07' W 093°20'3 5.6
2018-Feb-16 15:00N 30°10' W 093°19'3 5.6
2018-Feb-16 14:30N 30°12' W 093°17'2 3.9
2018-Feb-16 14:00N 30°13' W 093°16'1 1.6
2018-Feb-16 13:30N 30°14' W 093°16'0 0.0
2018-Feb-16 13:00N 30°14' W 093°16'0 0.5
2018-Feb-16 12:30N 30°14' W 093°15'0 0.1
2018-Feb-16 12:00N 30°14' W 093°15'0 0.0
2018-Feb-16 11:30N 30°14' W 093°15'0 0.0
2018-Feb-16 11:00N 30°14' W 093°15'0 0.0
2018-Feb-16 10:29N 30°14' W 093°15'0 0.0
2018-Feb-16 10:00N 30°14' W 093°15'0 0.0
2018-Feb-16 09:29N 30°14' W 093°15'0 0.0
2018-Feb-16 09:00N 30°14' W 093°15'0 0.0
2018-Feb-16 08:30N 30°14' W 093°15'0 0.0
2018-Feb-16 08:00N 30°14' W 093°15'0 0.0
2018-Feb-16 07:29N 30°14' W 093°15'0 0.0
2018-Feb-16 07:00N 30°14' W 093°15'0 0.0
2018-Feb-16 06:30N 30°14' W 093°15'0 0.0
2018-Feb-16 06:00N 30°14' W 093°15'0 0.0
2018-Feb-16 05:30N 30°14' W 093°15'0 0.0
2018-Feb-16 05:00N 30°14' W 093°15'0 0.0
2018-Feb-16 04:30N 30°14' W 093°15'0 0.0
2018-Feb-16 04:00N 30°14' W 093°15'0 0.0
2018-Feb-16 03:30N 30°14' W 093°15'0 0.0
2018-Feb-16 03:00N 30°14' W 093°15'0 0.0
2018-Feb-16 02:30N 30°14' W 093°15'0 0.0
2018-Feb-16 02:00N 30°14' W 093°15'0 0.0
2018-Feb-16 01:30N 30°14' W 093°15'0 0.0
2018-Feb-16 01:00N 30°14' W 093°15'0 0.0
2018-Feb-16 00:30N 30°14' W 093°15'0 0.0
2018-Feb-16 00:00N 30°14' W 093°15'0 0.0
2018-Feb-15 23:30N 30°14' W 093°15'0 0.0
2018-Feb-15 23:00N 30°14' W 093°15'0 0.0
2018-Feb-15 22:30N 30°14' W 093°15'0 0.0
2018-Feb-15 22:00N 30°14' W 093°15'0 0.0
2018-Feb-15 21:30N 30°14' W 093°15'0 0.0
2018-Feb-15 21:00N 30°14' W 093°15'0 0.0
2018-Feb-15 20:30N 30°14' W 093°15'0 0.0
2018-Feb-15 20:00N 30°14' W 093°15'0 0.0
2018-Feb-15 19:30N 30°14' W 093°15'0 0.0
2018-Feb-15 19:00N 30°14' W 093°15'0 0.0
2018-Feb-15 18:30N 30°14' W 093°15'0 0.0
2018-Feb-15 18:00N 30°14' W 093°15'0 0.0
2018-Feb-15 17:30N 30°14' W 093°15'0 0.0
2018-Feb-15 17:00N 30°14' W 093°15'0 0.0
2018-Feb-15 16:30N 30°14' W 093°15'0 0.0
2018-Feb-15 16:00N 30°14' W 093°15'0 0.0
2018-Feb-15 15:30N 30°14' W 093°15'0 0.0
2018-Feb-15 15:00N 30°14' W 093°15'0 0.0
2018-Feb-15 14:30N 30°14' W 093°15'0 0.0
2018-Feb-15 14:00N 30°14' W 093°15'0 0.0
2018-Feb-15 13:30N 30°14' W 093°15'0 0.0
2018-Feb-15 13:00N 30°14' W 093°15'0 0.0
2018-Feb-15 12:30N 30°14' W 093°15'0 0.0
2018-Feb-15 12:00N 30°14' W 093°15'0 0.0
2018-Feb-15 11:30N 30°14' W 093°15'0 0.0
2018-Feb-15 11:00N 30°14' W 093°15'0 0.0
2018-Feb-15 10:30N 30°14' W 093°15'0 0.0
2018-Feb-15 10:00N 30°14' W 093°15'0 0.0
2018-Feb-15 09:30N 30°14' W 093°15'0 0.0
2018-Feb-15 09:00N 30°14' W 093°15'0 0.0
2018-Feb-15 08:30N 30°14' W 093°15'0 0.0
2018-Feb-15 08:00N 30°14' W 093°15'0 0.0
2018-Feb-15 07:30N 30°14' W 093°15'0 0.0
2018-Feb-15 07:00N 30°14' W 093°15'0 0.0
2018-Feb-15 06:30N 30°14' W 093°15'0 0.0
2018-Feb-15 06:00N 30°14' W 093°15'0 0.0
2018-Feb-15 05:30N 30°14' W 093°15'0 0.0
2018-Feb-15 05:00N 30°14' W 093°15'0 0.0
2018-Feb-15 04:30N 30°14' W 093°15'0 0.0
2018-Feb-15 04:00N 30°14' W 093°15'0 0.0
2018-Feb-15 03:30N 30°14' W 093°15'0 0.0
2018-Feb-15 03:00N 30°14' W 093°15'0 0.0
2018-Feb-15 02:30N 30°14' W 093°15'0 0.0
2018-Feb-15 02:00N 30°14' W 093°15'0 0.0
2018-Feb-15 01:30N 30°14' W 093°15'0 0.0
2018-Feb-15 01:00N 30°14' W 093°15'0 0.0
2018-Feb-15 00:30N 30°14' W 093°15'0 0.0
2018-Feb-15 00:00N 30°14' W 093°15'0 0.0
2018-Feb-14 23:30N 30°14' W 093°15'0 0.0
2018-Feb-14 23:00N 30°14' W 093°15'0 0.0
2018-Feb-14 22:29N 30°14' W 093°15'0 0.0
2018-Feb-14 22:01N 30°14' W 093°15'0 0.0
2018-Feb-14 21:29N 30°14' W 093°15'0 0.1
2018-Feb-14 21:00N 30°14' W 093°15'1 1.6
2018-Feb-14 20:31N 30°13' W 093°16'1 2.9
2018-Feb-14 20:01N 30°12' W 093°17'2 3.5
2018-Feb-14 19:30N 30°11' W 093°18'2 3.1
2018-Feb-14 19:01N 30°10' W 093°19'1 2.7
2018-Feb-14 18:30N 30°08' W 093°20'1 1.3
2018-Feb-14 18:00N 30°08' W 093°19'0 0.0
2018-Feb-14 17:30N 30°08' W 093°19'0 0.0
2018-Feb-14 17:00N 30°08' W 093°19'0 0.0
2018-Feb-14 16:30N 30°08' W 093°19'0 0.0
2018-Feb-14 16:00N 30°08' W 093°19'0 0.0
2018-Feb-14 15:30N 30°08' W 093°19'0 0.0
2018-Feb-14 14:59N 30°08' W 093°19'0 0.0
2018-Feb-14 14:30N 30°08' W 093°19'0 0.0
2018-Feb-14 14:00N 30°08' W 093°19'0 0.0
2018-Feb-14 13:30N 30°08' W 093°19'0 0.0
2018-Feb-14 13:00N 30°08' W 093°19'0 0.0
2018-Feb-14 12:30N 30°08' W 093°19'0 0.0
2018-Feb-14 12:00N 30°08' W 093°19'0 0.0
2018-Feb-14 11:29N 30°08' W 093°19'0 0.0
2018-Feb-14 11:00N 30°08' W 093°19'0 0.0
2018-Feb-14 10:30N 30°08' W 093°19'0 0.0
2018-Feb-14 09:59N 30°08' W 093°19'0 0.0
2018-Feb-14 09:30N 30°08' W 093°19'0 0.0
2018-Feb-14 09:00N 30°08' W 093°19'0 0.0
2018-Feb-14 08:28N 30°08' W 093°19'0 0.0
2018-Feb-14 08:00N 30°08' W 093°19'0 0.0
2018-Feb-14 07:29N 30°08' W 093°19'0 0.0
2018-Feb-14 07:00N 30°08' W 093°19'0 0.0
2018-Feb-14 06:30N 30°08' W 093°19'0 0.0
2018-Feb-14 05:58N 30°08' W 093°19'0 0.0
2018-Feb-14 05:30N 30°08' W 093°19'0 0.0
2018-Feb-14 04:58N 30°08' W 093°19'0 0.0
2018-Feb-14 04:30N 30°08' W 093°19'0 0.0
2018-Feb-14 03:59N 30°08' W 093°19'0 0.0
2018-Feb-14 03:30N 30°08' W 093°19'0 0.0
2018-Feb-14 03:00N 30°08' W 093°19'0 0.0
2018-Feb-14 02:30N 30°08' W 093°19'0 0.0
2018-Feb-14 01:58N 30°08' W 093°19'0 0.0
2018-Feb-14 01:30N 30°08' W 093°19'0 0.0
2018-Feb-14 00:58N 30°08' W 093°19'0 0.0
2018-Feb-14 00:30N 30°08' W 093°19'0 0.0
2018-Feb-14 00:00N 30°08' W 093°19'0 0.0
2018-Feb-13 23:30N 30°08' W 093°19'0 0.0
2018-Feb-13 22:57N 30°08' W 093°19'0 0.0
2018-Feb-13 22:30N 30°08' W 093°19'0 0.0
2018-Feb-13 22:00N 30°08' W 093°19'1 1.0
2018-Feb-13 21:30N 30°08' W 093°20'0 0.0
2018-Feb-13 21:00N 30°08' W 093°20'0 0.0
2018-Feb-13 20:30N 30°08' W 093°20'0 0.0
2018-Feb-13 20:00N 30°08' W 093°20'0 0.0
2018-Feb-13 19:30N 30°08' W 093°20'0 0.0
2018-Feb-13 19:00N 30°08' W 093°20'0 0.0
2018-Feb-13 18:30N 30°08' W 093°20'2 4.6
2018-Feb-13 18:00N 30°06' W 093°20'2 3.7
2018-Feb-13 17:30N 30°04' W 093°21'0 0.1
2018-Feb-13 17:00N 30°04' W 093°21'0 0.0
2018-Feb-13 16:30N 30°04' W 093°21'0 0.0
2018-Feb-13 15:59N 30°04' W 093°21'0 0.0
2018-Feb-13 15:30N 30°04' W 093°21'0 0.0
2018-Feb-13 15:00N 30°04' W 093°21'0 0.0
2018-Feb-13 14:30N 30°04' W 093°21'0 0.0
2018-Feb-13 14:00N 30°04' W 093°21'0 0.0
2018-Feb-13 13:30N 30°04' W 093°21'0 0.0
2018-Feb-13 13:00N 30°04' W 093°21'0 0.0
2018-Feb-13 12:30N 30°04' W 093°21'0 0.0
2018-Feb-13 12:00N 30°04' W 093°21'0 0.0
2018-Feb-13 11:27N 30°04' W 093°21'0 0.0
2018-Feb-13 11:00N 30°04' W 093°21'0 0.0
2018-Feb-13 10:30N 30°04' W 093°21'0 0.0
2018-Feb-13 10:00N 30°04' W 093°21'0 0.0
2018-Feb-13 09:30N 30°04' W 093°21'0 0.0
2018-Feb-13 08:59N 30°04' W 093°21'0 0.0
2018-Feb-13 08:30N 30°04' W 093°21'0 0.0
2018-Feb-13 07:59N 30°04' W 093°21'0 0.0
2018-Feb-13 07:28N 30°04' W 093°21'0 0.0
2018-Feb-13 07:00N 30°04' W 093°21'0 0.0
2018-Feb-13 06:30N 30°04' W 093°21'0 0.0
2018-Feb-13 06:00N 30°04' W 093°21'0 0.0
2018-Feb-13 05:29N 30°04' W 093°21'0 0.0
2018-Feb-13 05:00N 30°04' W 093°21'1 2.0
2018-Feb-13 04:30N 30°04' W 093°22'3 5.2
2018-Feb-13 04:00N 30°04' W 093°25'2 4.9
2018-Feb-13 03:30N 30°04' W 093°27'2 4.8
2018-Feb-13 03:00N 30°04' W 093°30'2 4.9
2018-Feb-13 02:30N 30°04' W 093°33'3 5.0
2018-Feb-13 02:00N 30°04' W 093°36'3 5.5
2018-Feb-13 01:30N 30°03' W 093°39'3 5.1
2018-Feb-13 01:00N 30°03' W 093°42'1 2.8
2018-Feb-13 00:30N 30°03' W 093°44'3 5.1
2018-Feb-13 00:00N 30°01' W 093°45'3 5.8
2018-Feb-12 23:30N 29°59' W 093°48'3 6.2
2018-Feb-12 23:01N 29°58' W 093°51'3 6.4
2018-Feb-12 22:31N 29°55' W 093°53'4 7.4
2018-Feb-12 22:00N 29°52' W 093°56'3 6.5
2018-Feb-12 21:30N 29°49' W 093°58'3 5.2
2018-Feb-12 21:00N 29°48' W 094°00'2 5.0
2018-Feb-12 20:30N 29°46' W 094°03'2 4.9
2018-Feb-12 20:00N 29°45' W 094°05'2 4.9
2018-Feb-12 19:30N 29°43' W 094°07'3 5.0
2018-Feb-12 19:00N 29°41' W 094°09'2 5.0
2018-Feb-12 18:30N 29°41' W 094°12'2 4.8
2018-Feb-12 18:00N 29°40' W 094°15'2 4.7
2018-Feb-12 17:29N 29°39' W 094°17'2 4.5
2018-Feb-12 17:00N 29°38' W 094°19'2 4.7
2018-Feb-12 16:30N 29°36' W 094°22'2 3.9
2018-Feb-12 15:59N 29°36' W 094°24'2 4.1
2018-Feb-12 15:31N 29°34' W 094°25'3 4.6
2018-Feb-12 14:58N 29°33' W 094°28'2 3.6
2018-Feb-12 14:29N 29°32' W 094°29'3 4.6
2018-Feb-12 13:55N 29°31' W 094°32'18 3.3
2018-Feb-12 08:33N 29°30' W 094°52'0 6.7
2018-Feb-12 08:29N 29°30' W 094°52'3 6.1
2018-Feb-12 08:00N 29°32' W 094°54'3 6.1
2018-Feb-12 07:30N 29°35' W 094°56'3 5.6
2018-Feb-12 07:00N 29°37' W 094°59'2 4.8
2018-Feb-12 06:29N 29°37' W 095°01'0 0.1
2018-Feb-12 06:00N 29°37' W 095°01'0 0.0
2018-Feb-12 05:30N 29°37' W 095°01'0 0.0
2018-Feb-12 05:00N 29°37' W 095°01'0 0.0
2018-Feb-12 04:30N 29°37' W 095°01'0 0.0
2018-Feb-12 04:00N 29°37' W 095°01'0 0.0
2018-Feb-12 03:30N 29°37' W 095°01'0 0.0
2018-Feb-12 03:00N 29°37' W 095°01'0 0.0
2018-Feb-12 02:30N 29°37' W 095°01'0 0.0
2018-Feb-12 02:00N 29°37' W 095°01'0 0.0
2018-Feb-12 01:30N 29°37' W 095°01'0 0.0
2018-Feb-12 01:00N 29°37' W 095°01'0 0.0
2018-Feb-12 00:30N 29°37' W 095°01'0 0.2
2018-Feb-12 00:00N 29°37' W 095°01'0 0.3
2018-Feb-11 23:30N 29°37' W 095°01'0 0.0
2018-Feb-11 23:00N 29°37' W 095°01'0 0.0
2018-Feb-11 22:30N 29°37' W 095°01'0 0.0
2018-Feb-11 22:00N 29°37' W 095°01'0 0.0
2018-Feb-11 21:30N 29°37' W 095°01'0 0.0
2018-Feb-11 21:00N 29°37' W 095°01'0 0.0
2018-Feb-11 20:30N 29°37' W 095°01'0 0.0
2018-Feb-11 20:00N 29°37' W 095°01'0 0.0
2018-Feb-11 19:30N 29°37' W 095°01'0 0.0
2018-Feb-11 19:00N 29°37' W 095°01'0 0.0
2018-Feb-11 18:30N 29°37' W 095°01'0 0.0
2018-Feb-11 18:00N 29°37' W 095°01'0 0.0
2018-Feb-11 17:30N 29°37' W 095°01'0 0.0
2018-Feb-11 17:00N 29°37' W 095°01'0 0.0
2018-Feb-11 16:30N 29°37' W 095°01'0 0.0
2018-Feb-11 16:00N 29°37' W 095°01'0 0.0
2018-Feb-11 15:31N 29°37' W 095°01'0 0.0
2018-Feb-11 15:00N 29°37' W 095°01'0 0.0
2018-Feb-11 14:30N 29°37' W 095°01'0 0.0
2018-Feb-11 14:01N 29°37' W 095°01'0 0.0
2018-Feb-11 13:31N 29°37' W 095°01'0 0.3
2018-Feb-11 13:00N 29°37' W 095°01'0 0.0
2018-Feb-11 12:31N 29°37' W 095°01'0 0.3
2018-Feb-11 12:00N 29°37' W 095°01'0 0.3
2018-Feb-11 11:30N 29°37' W 095°01'0 0.0
2018-Feb-11 11:01N 29°37' W 095°01'0 0.0
2018-Feb-11 10:30N 29°37' W 095°01'0 0.0
2018-Feb-11 10:01N 29°37' W 095°01'0 0.0
2018-Feb-11 09:31N 29°37' W 095°01'0 0.0
2018-Feb-11 09:01N 29°37' W 095°01'0 0.0
2018-Feb-11 08:31N 29°37' W 095°01'0 0.0
2018-Feb-11 08:00N 29°37' W 095°01'0 0.0
2018-Feb-11 07:31N 29°37' W 095°01'0 0.0
2018-Feb-11 07:00N 29°37' W 095°01'0 0.0
2018-Feb-11 06:30N 29°37' W 095°01'0 0.0
2018-Feb-11 06:00N 29°37' W 095°01'0 0.0
2018-Feb-11 05:31N 29°37' W 095°01'0 0.0
2018-Feb-11 05:00N 29°37' W 095°01'0 0.0
2018-Feb-11 04:30N 29°37' W 095°01'0 0.0
2018-Feb-11 04:01N 29°37' W 095°01'0 0.0
2018-Feb-11 03:31N 29°37' W 095°01'0 0.0
2018-Feb-11 03:01N 29°37' W 095°01'0 0.0
2018-Feb-11 02:31N 29°37' W 095°01'0 0.0
2018-Feb-11 02:01N 29°37' W 095°01'0 0.0
2018-Feb-11 01:30N 29°37' W 095°01'0 0.0
2018-Feb-11 01:01N 29°37' W 095°01'0 0.0
2018-Feb-11 00:31N 29°37' W 095°01'0 0.0
2018-Feb-11 00:01N 29°37' W 095°01'0 0.0
2018-Feb-10 23:31N 29°37' W 095°01'0 0.0
2018-Feb-10 23:01N 29°37' W 095°01'0 0.0
2018-Feb-10 22:31N 29°37' W 095°01'0 0.0
2018-Feb-10 22:01N 29°37' W 095°01'0 0.0
2018-Feb-10 21:30N 29°37' W 095°01'0 0.0
2018-Feb-10 21:00N 29°37' W 095°01'0 0.0
2018-Feb-10 20:30N 29°37' W 095°01'0 0.0
2018-Feb-10 20:00N 29°37' W 095°01'0 0.3
2018-Feb-10 19:31N 29°37' W 095°01'0 0.3
2018-Feb-10 19:00N 29°37' W 095°01'0 0.1
2018-Feb-10 18:26N 29°37' W 095°01'1 2.0
2018-Feb-10 18:00N 29°37' W 095°00'3 5.4
2018-Feb-10 17:31N 29°37' W 094°57'3 5.9
2018-Feb-10 17:01N 29°34' W 094°56'3 6.4
2018-Feb-10 16:30N 29°32' W 094°53'3 6.1
2018-Feb-10 15:59N 29°29' W 094°52'7 4.0
2018-Feb-10 14:07N 29°24' W 094°45'1 4.9
2018-Feb-10 14:00N 29°24' W 094°45'0 0.4
2018-Feb-10 12:58N 29°24' W 094°45'0 0.0
2018-Feb-10 09:52N 29°24' W 094°45'0 0.0
2018-Feb-10 09:30N 29°24' W 094°45'0 0.0
2018-Feb-10 09:00N 29°24' W 094°45'0 0.0
2018-Feb-10 08:30N 29°24' W 094°45'0 0.0
2018-Feb-10 07:58N 29°24' W 094°45'0 0.0
2018-Feb-10 07:17N 29°24' W 094°45'0 0.0
2018-Feb-10 07:00N 29°24' W 094°45'0 0.0
2018-Feb-10 06:28N 29°24' W 094°45'0 0.0
2018-Feb-10 05:38N 29°24' W 094°45'0 0.0
2018-Feb-10 05:30N 29°24' W 094°45'0 0.0
2018-Feb-10 04:58N 29°24' W 094°45'0 0.0
2018-Feb-10 04:29N 29°24' W 094°45'0 0.0
2018-Feb-10 03:59N 29°24' W 094°45'  
Track history (hours):
 
Tides and Currents Weather Stations Pressure Air Temp Water Temp Dewpoint Dewpoint Depression Visibility Wind Speed Wind Dir Waves Ship Positions

Duke

Owner: Harley Marine Services, Inc, Seattle, WA. More information available from US FCC via Universal Licensing System and Coast Guard Vessel Documentation Center.

Last reported at 2018-Feb-19 14:00 UTC. Time now 2018-Feb-19 14:17 UTC.
Position N 29°24' W 094°45'.

Length 26 m; draft 2.6 m.

Type: Ship (hazmat cat A). MMSI: 367586750.

Date/timePositionNaut miles runAvg speedWind from/ knotsBaromVisibWave heightAir tempDewpointWater temp
2018-Feb-19 14:00N 29°24' W 094°45'0 0.0
2018-Feb-19 13:30N 29°24' W 094°45'0 0.1
2018-Feb-19 13:00N 29°24' W 094°45'0 0.1
2018-Feb-19 12:30N 29°24' W 094°45'0 0.0
2018-Feb-19 11:59N 29°24' W 094°45'0 0.0
2018-Feb-19 11:30N 29°24' W 094°45'0 0.0
2018-Feb-19 10:59N 29°24' W 094°45'0 0.0
2018-Feb-19 10:29N 29°24' W 094°45'0 0.0
2018-Feb-19 10:00N 29°24' W 094°45'0 0.0
2018-Feb-19 09:30N 29°24' W 094°45'0 0.0
2018-Feb-19 09:00N 29°24' W 094°45'0 0.3
2018-Feb-19 08:29N 29°24' W 094°45'2 3.6
2018-Feb-19 08:00N 29°23' W 094°46'0 0.0
2018-Feb-19 07:30N 29°23' W 094°46'0 0.0
2018-Feb-19 07:00N 29°23' W 094°46'0 0.0
2018-Feb-19 06:29N 29°23' W 094°46'0 0.0
2018-Feb-19 05:57N 29°23' W 094°46'0 0.0
2018-Feb-19 05:30N 29°23' W 094°46'0 0.0
2018-Feb-19 05:01N 29°23' W 094°46'0 0.0
2018-Feb-19 04:30N 29°23' W 094°46'0 0.0
2018-Feb-19 03:59N 29°23' W 094°46'0 0.0
2018-Feb-19 00:11N 29°23' W 094°46'1 3.6
2018-Feb-18 23:56N 29°24' W 094°45'1 1.7
2018-Feb-18 23:21N 29°24' W 094°44'2 3.0
2018-Feb-18 22:43N 29°26' W 094°43'2 4.7
2018-Feb-18 22:16N 29°27' W 094°41'4 3.9
2018-Feb-18 21:17N 29°29' W 094°37'1 3.7
2018-Feb-18 20:58N 29°29' W 094°36'2 3.8
2018-Feb-18 20:26N 29°30' W 094°34'2 3.8
2018-Feb-18 19:51N 29°31' W 094°31'1 3.9
2018-Feb-18 19:29N 29°31' W 094°30'2 3.7
2018-Feb-18 19:00N 29°33' W 094°28'1 1.9
2018-Feb-18 18:28N 29°33' W 094°28'0 0.1
2018-Feb-18 18:00N 29°33' W 094°28'0 0.0
2018-Feb-18 17:30N 29°33' W 094°28'0 0.1
2018-Feb-18 17:01N 29°33' W 094°28'0 0.2
2018-Feb-18 16:30N 29°33' W 094°28'0 0.3
2018-Feb-18 16:00N 29°34' W 094°28'0 0.1
2018-Feb-18 15:30N 29°34' W 094°28'0 0.0
2018-Feb-18 15:00N 29°34' W 094°28'0 0.0
2018-Feb-18 14:30N 29°34' W 094°28'0 0.0
2018-Feb-18 13:58N 29°34' W 094°28'0 0.0
2018-Feb-18 13:29N 29°34' W 094°28'0 0.1
2018-Feb-18 12:58N 29°34' W 094°28'0 0.0
2018-Feb-18 12:29N 29°34' W 094°28'0 0.0
2018-Feb-18 11:55N 29°34' W 094°28'0 0.0
2018-Feb-18 11:30N 29°34' W 094°28'0 0.0
2018-Feb-18 10:58N 29°34' W 094°28'0 0.0
2018-Feb-18 10:27N 29°34' W 094°28'0 0.0
2018-Feb-18 10:00N 29°34' W 094°28'0 0.2
2018-Feb-18 09:30N 29°34' W 094°27'0 0.0
2018-Feb-18 08:58N 29°34' W 094°27'0 0.1
2018-Feb-18 08:29N 29°34' W 094°27'0 0.0
2018-Feb-18 08:00N 29°34' W 094°27'0 0.0
2018-Feb-18 07:30N 29°34' W 094°27'0 0.0
2018-Feb-18 07:00N 29°34' W 094°27'0 0.0
2018-Feb-18 06:30N 29°34' W 094°27'0 0.0
2018-Feb-18 03:08N 29°34' W 094°27'0 0.0
2018-Feb-18 02:56N 29°34' W 094°27'0 0.0
2018-Feb-18 02:30N 29°34' W 094°27'0 0.0
2018-Feb-18 02:00N 29°34' W 094°27'0 0.1
2018-Feb-18 01:25N 29°34' W 094°27'1 2.6
2018-Feb-18 01:00N 29°34' W 094°26'2 3.0
2018-Feb-18 00:28N 29°35' W 094°25'1 3.1
2018-Feb-18 00:00N 29°36' W 094°23'0 0.2
2018-Feb-17 23:31N 29°36' W 094°24'0 0.0
2018-Feb-17 23:00N 29°36' W 094°24'0 0.1
2018-Feb-17 22:30N 29°36' W 094°24'0 0.1
2018-Feb-17 22:00N 29°36' W 094°23'0 0.0
2018-Feb-17 21:30N 29°36' W 094°23'1 1.9
2018-Feb-17 20:59N 29°36' W 094°22'0 0.8
2018-Feb-17 20:30N 29°36' W 094°22'1 2.3
2018-Feb-17 20:00N 29°37' W 094°21'0 0.2
2018-Feb-17 19:30N 29°37' W 094°21'0 0.0
2018-Feb-17 19:00N 29°37' W 094°21'0 0.0
2018-Feb-17 18:30N 29°37' W 094°21'0 0.6
2018-Feb-17 18:00N 29°37' W 094°20'0 0.1
2018-Feb-17 17:30N 29°37' W 094°20'0 0.0
2018-Feb-17 16:57N 29°37' W 094°20'0 0.0
2018-Feb-17 16:30N 29°37' W 094°20'1 2.0
2018-Feb-17 16:00N 29°38' W 094°19'3 5.4
2018-Feb-17 15:30N 29°39' W 094°17'2 3.9
2018-Feb-17 15:00N 29°40' W 094°15'0 0.0
2018-Feb-17 14:30N 29°40' W 094°15'0 0.0
2018-Feb-17 14:00N 29°40' W 094°15'0 0.1
2018-Feb-17 13:30N 29°40' W 094°15'0 0.0
2018-Feb-17 13:01N 29°40' W 094°15'0 0.0
2018-Feb-17 12:30N 29°40' W 094°15'0 0.0
2018-Feb-17 12:00N 29°40' W 094°15'0 0.0
2018-Feb-17 11:29N 29°40' W 094°15'0 0.0
2018-Feb-17 10:59N 29°40' W 094°15'0 0.0
2018-Feb-17 10:30N 29°40' W 094°15'0 0.0
2018-Feb-17 10:00N 29°40' W 094°15'0 0.0
2018-Feb-17 09:30N 29°40' W 094°15'0 0.0
2018-Feb-17 09:00N 29°40' W 094°15'0 0.0
2018-Feb-17 08:30N 29°40' W 094°15'0 0.0
2018-Feb-17 08:00N 29°40' W 094°15'0 0.0
2018-Feb-17 07:30N 29°40' W 094°15'0 0.0
2018-Feb-17 07:00N 29°40' W 094°15'0 0.0
2018-Feb-17 06:30N 29°40' W 094°15'0 0.0
2018-Feb-17 05:59N 29°40' W 094°15'0 0.0
2018-Feb-17 05:30N 29°40' W 094°15'0 0.0
2018-Feb-17 04:55N 29°40' W 094°15'0 0.0
2018-Feb-17 04:30N 29°40' W 094°15'0 0.3
2018-Feb-17 04:00N 29°40' W 094°14'0 0.0
2018-Feb-17 03:30N 29°40' W 094°14'0 0.4
2018-Feb-17 03:00N 29°40' W 094°14'0 0.2
2018-Feb-17 02:29N 29°40' W 094°14'0 0.2
2018-Feb-17 02:00N 29°40' W 094°14'2 3.7
2018-Feb-17 01:30N 29°41' W 094°12'2 4.7
2018-Feb-17 01:00N 29°41' W 094°10'2 5.0
2018-Feb-17 00:30N 29°43' W 094°07'3 5.3
2018-Feb-17 00:00N 29°45' W 094°05'3 5.3
2018-Feb-16 23:30N 29°46' W 094°03'3 5.2
2018-Feb-16 23:00N 29°48' W 094°00'2 4.9
2018-Feb-16 22:30N 29°49' W 093°58'4 7.3
2018-Feb-16 22:01N 29°52' W 093°56'4 8.1
2018-Feb-16 21:30N 29°56' W 093°53'4 7.1
2018-Feb-16 21:00N 29°58' W 093°50'4 7.5
2018-Feb-16 20:30N 29°60' W 093°46'4 7.4
2018-Feb-16 20:00N 30°03' W 093°44'3 6.4
2018-Feb-16 19:30N 30°04' W 093°40'3 6.2
2018-Feb-16 19:00N 30°04' W 093°37'2 4.7
2018-Feb-16 18:30N 30°04' W 093°34'2 5.1
2018-Feb-16 18:00N 30°04' W 093°31'3 5.2
2018-Feb-16 17:30N 30°04' W 093°28'3 5.0
2018-Feb-16 17:00N 30°04' W 093°25'2 5.0
2018-Feb-16 16:30N 30°04' W 093°22'2 3.8
2018-Feb-16 16:00N 30°05' W 093°20'2 4.4
2018-Feb-16 15:30N 30°07' W 093°20'3 5.6
2018-Feb-16 15:00N 30°10' W 093°19'3 5.6
2018-Feb-16 14:30N 30°12' W 093°17'2 3.9
2018-Feb-16 14:00N 30°13' W 093°16'1 1.6
2018-Feb-16 13:30N 30°14' W 093°16'0 0.0
2018-Feb-16 13:00N 30°14' W 093°16'0 0.5
2018-Feb-16 12:30N 30°14' W 093°15'0 0.1
2018-Feb-16 12:00N 30°14' W 093°15'0 0.0
2018-Feb-16 11:30N 30°14' W 093°15'0 0.0
2018-Feb-16 11:00N 30°14' W 093°15'0 0.0
2018-Feb-16 10:29N 30°14' W 093°15'0 0.0
2018-Feb-16 10:00N 30°14' W 093°15'0 0.0
2018-Feb-16 09:29N 30°14' W 093°15'0 0.0
2018-Feb-16 09:00N 30°14' W 093°15'0 0.0
2018-Feb-16 08:30N 30°14' W 093°15'0 0.0
2018-Feb-16 08:00N 30°14' W 093°15'0 0.0
2018-Feb-16 07:29N 30°14' W 093°15'0 0.0
2018-Feb-16 07:00N 30°14' W 093°15'0 0.0
2018-Feb-16 06:30N 30°14' W 093°15'0 0.0
2018-Feb-16 06:00N 30°14' W 093°15'0 0.0
2018-Feb-16 05:30N 30°14' W 093°15'0 0.0
2018-Feb-16 05:00N 30°14' W 093°15'0 0.0
2018-Feb-16 04:30N 30°14' W 093°15'0 0.0
2018-Feb-16 04:00N 30°14' W 093°15'0 0.0
2018-Feb-16 03:30N 30°14' W 093°15'0 0.0
2018-Feb-16 03:00N 30°14' W 093°15'0 0.0
2018-Feb-16 02:30N 30°14' W 093°15'0 0.0
2018-Feb-16 02:00N 30°14' W 093°15'0 0.0
2018-Feb-16 01:30N 30°14' W 093°15'0 0.0
2018-Feb-16 01:00N 30°14' W 093°15'0 0.0
2018-Feb-16 00:30N 30°14' W 093°15'0 0.0
2018-Feb-16 00:00N 30°14' W 093°15'0 0.0
2018-Feb-15 23:30N 30°14' W 093°15'0 0.0
2018-Feb-15 23:00N 30°14' W 093°15'0 0.0
2018-Feb-15 22:30N 30°14' W 093°15'0 0.0
2018-Feb-15 22:00N 30°14' W 093°15'0 0.0
2018-Feb-15 21:30N 30°14' W 093°15'0 0.0
2018-Feb-15 21:00N 30°14' W 093°15'0 0.0
2018-Feb-15 20:30N 30°14' W 093°15'0 0.0
2018-Feb-15 20:00N 30°14' W 093°15'0 0.0
2018-Feb-15 19:30N 30°14' W 093°15'0 0.0
2018-Feb-15 19:00N 30°14' W 093°15'0 0.0
2018-Feb-15 18:30N 30°14' W 093°15'0 0.0
2018-Feb-15 18:00N 30°14' W 093°15'0 0.0
2018-Feb-15 17:30N 30°14' W 093°15'0 0.0
2018-Feb-15 17:00N 30°14' W 093°15'0 0.0
2018-Feb-15 16:30N 30°14' W 093°15'0 0.0
2018-Feb-15 16:00N 30°14' W 093°15'0 0.0
2018-Feb-15 15:30N 30°14' W 093°15'0 0.0
2018-Feb-15 15:00N 30°14' W 093°15'0 0.0
2018-Feb-15 14:30N 30°14' W 093°15'0 0.0
2018-Feb-15 14:00N 30°14' W 093°15'0 0.0
2018-Feb-15 13:30N 30°14' W 093°15'0 0.0
2018-Feb-15 13:00N 30°14' W 093°15'0 0.0
2018-Feb-15 12:30N 30°14' W 093°15'0 0.0
2018-Feb-15 12:00N 30°14' W 093°15'0 0.0
2018-Feb-15 11:30N 30°14' W 093°15'0 0.0
2018-Feb-15 11:00N 30°14' W 093°15'0 0.0
2018-Feb-15 10:30N 30°14' W 093°15'0 0.0
2018-Feb-15 10:00N 30°14' W 093°15'0 0.0
2018-Feb-15 09:30N 30°14' W 093°15'0 0.0
2018-Feb-15 09:00N 30°14' W 093°15'0 0.0
2018-Feb-15 08:30N 30°14' W 093°15'0 0.0
2018-Feb-15 08:00N 30°14' W 093°15'0 0.0
2018-Feb-15 07:30N 30°14' W 093°15'0 0.0
2018-Feb-15 07:00N 30°14' W 093°15'0 0.0
2018-Feb-15 06:30N 30°14' W 093°15'0 0.0
2018-Feb-15 06:00N 30°14' W 093°15'0 0.0
2018-Feb-15 05:30N 30°14' W 093°15'0 0.0
2018-Feb-15 05:00N 30°14' W 093°15'0 0.0
2018-Feb-15 04:30N 30°14' W 093°15'0 0.0
2018-Feb-15 04:00N 30°14' W 093°15'0 0.0
2018-Feb-15 03:30N 30°14' W 093°15'0 0.0
2018-Feb-15 03:00N 30°14' W 093°15'0 0.0
2018-Feb-15 02:30N 30°14' W 093°15'0 0.0
2018-Feb-15 02:00N 30°14' W 093°15'0 0.0
2018-Feb-15 01:30N 30°14' W 093°15'0 0.0
2018-Feb-15 01:00N 30°14' W 093°15'0 0.0
2018-Feb-15 00:30N 30°14' W 093°15'0 0.0
2018-Feb-15 00:00N 30°14' W 093°15'0 0.0
2018-Feb-14 23:30N 30°14' W 093°15'0 0.0
2018-Feb-14 23:00N 30°14' W 093°15'0 0.0
2018-Feb-14 22:29N 30°14' W 093°15'0 0.0
2018-Feb-14 22:01N 30°14' W 093°15'0 0.0
2018-Feb-14 21:29N 30°14' W 093°15'0 0.1
2018-Feb-14 21:00N 30°14' W 093°15'1 1.6
2018-Feb-14 20:31N 30°13' W 093°16'1 2.9
2018-Feb-14 20:01N 30°12' W 093°17'2 3.5
2018-Feb-14 19:30N 30°11' W 093°18'2 3.1
2018-Feb-14 19:01N 30°10' W 093°19'1 2.7
2018-Feb-14 18:30N 30°08' W 093°20'1 1.3
2018-Feb-14 18:00N 30°08' W 093°19'0 0.0
2018-Feb-14 17:30N 30°08' W 093°19'0 0.0
2018-Feb-14 17:00N 30°08' W 093°19'0 0.0
2018-Feb-14 16:30N 30°08' W 093°19'0 0.0
2018-Feb-14 16:00N 30°08' W 093°19'0 0.0
2018-Feb-14 15:30N 30°08' W 093°19'0 0.0
2018-Feb-14 14:59N 30°08' W 093°19'0 0.0
2018-Feb-14 14:30N 30°08' W 093°19'0 0.0
2018-Feb-14 14:00N 30°08' W 093°19'0 0.0
2018-Feb-14 13:30N 30°08' W 093°19'0 0.0
2018-Feb-14 13:00N 30°08' W 093°19'0 0.0
2018-Feb-14 12:30N 30°08' W 093°19'0 0.0
2018-Feb-14 12:00N 30°08' W 093°19'0 0.0
2018-Feb-14 11:29N 30°08' W 093°19'0 0.0
2018-Feb-14 11:00N 30°08' W 093°19'0 0.0
2018-Feb-14 10:30N 30°08' W 093°19'0 0.0
2018-Feb-14 09:59N 30°08' W 093°19'0 0.0
2018-Feb-14 09:30N 30°08' W 093°19'0 0.0
2018-Feb-14 09:00N 30°08' W 093°19'0 0.0
2018-Feb-14 08:28N 30°08' W 093°19'0 0.0
2018-Feb-14 08:00N 30°08' W 093°19'0 0.0
2018-Feb-14 07:29N 30°08' W 093°19'0 0.0
2018-Feb-14 07:00N 30°08' W 093°19'0 0.0
2018-Feb-14 06:30N 30°08' W 093°19'0 0.0
2018-Feb-14 05:58N 30°08' W 093°19'0 0.0
2018-Feb-14 05:30N 30°08' W 093°19'0 0.0
2018-Feb-14 04:58N 30°08' W 093°19'0 0.0
2018-Feb-14 04:30N 30°08' W 093°19'0 0.0
2018-Feb-14 03:59N 30°08' W 093°19'0 0.0
2018-Feb-14 03:30N 30°08' W 093°19'0 0.0
2018-Feb-14 03:00N 30°08' W 093°19'0 0.0
2018-Feb-14 02:30N 30°08' W 093°19'0 0.0
2018-Feb-14 01:58N 30°08' W 093°19'0 0.0
2018-Feb-14 01:30N 30°08' W 093°19'0 0.0
2018-Feb-14 00:58N 30°08' W 093°19'0 0.0
2018-Feb-14 00:30N 30°08' W 093°19'0 0.0
2018-Feb-14 00:00N 30°08' W 093°19'0 0.0
2018-Feb-13 23:30N 30°08' W 093°19'0 0.0
2018-Feb-13 22:57N 30°08' W 093°19'0 0.0
2018-Feb-13 22:30N 30°08' W 093°19'0 0.0
2018-Feb-13 22:00N 30°08' W 093°19'1 1.0
2018-Feb-13 21:30N 30°08' W 093°20'0 0.0
2018-Feb-13 21:00N 30°08' W 093°20'0 0.0
2018-Feb-13 20:30N 30°08' W 093°20'0 0.0
2018-Feb-13 20:00N 30°08' W 093°20'0 0.0
2018-Feb-13 19:30N 30°08' W 093°20'0 0.0
2018-Feb-13 19:00N 30°08' W 093°20'0 0.0
2018-Feb-13 18:30N 30°08' W 093°20'2 4.6
2018-Feb-13 18:00N 30°06' W 093°20'2 3.7
2018-Feb-13 17:30N 30°04' W 093°21'0 0.1
2018-Feb-13 17:00N 30°04' W 093°21'0 0.0
2018-Feb-13 16:30N 30°04' W 093°21'0 0.0
2018-Feb-13 15:59N 30°04' W 093°21'0 0.0
2018-Feb-13 15:30N 30°04' W 093°21'0 0.0
2018-Feb-13 15:00N 30°04' W 093°21'0 0.0
2018-Feb-13 14:30N 30°04' W 093°21'0 0.0
2018-Feb-13 14:00N 30°04' W 093°21'0 0.0
2018-Feb-13 13:30N 30°04' W 093°21'0 0.0
2018-Feb-13 13:00N 30°04' W 093°21'0 0.0
2018-Feb-13 12:30N 30°04' W 093°21'0 0.0
2018-Feb-13 12:00N 30°04' W 093°21'0 0.0
2018-Feb-13 11:27N 30°04' W 093°21'0 0.0
2018-Feb-13 11:00N 30°04' W 093°21'0 0.0
2018-Feb-13 10:30N 30°04' W 093°21'0 0.0
2018-Feb-13 10:00N 30°04' W 093°21'0 0.0
2018-Feb-13 09:30N 30°04' W 093°21'0 0.0
2018-Feb-13 08:59N 30°04' W 093°21'0 0.0
2018-Feb-13 08:30N 30°04' W 093°21'0 0.0
2018-Feb-13 07:59N 30°04' W 093°21'0 0.0
2018-Feb-13 07:28N 30°04' W 093°21'0 0.0
2018-Feb-13 07:00N 30°04' W 093°21'0 0.0
2018-Feb-13 06:30N 30°04' W 093°21'0 0.0
2018-Feb-13 06:00N 30°04' W 093°21'0 0.0
2018-Feb-13 05:29N 30°04' W 093°21'0 0.0
2018-Feb-13 05:00N 30°04' W 093°21'1 2.0
2018-Feb-13 04:30N 30°04' W 093°22'3 5.2
2018-Feb-13 04:00N 30°04' W 093°25'2 4.9
2018-Feb-13 03:30N 30°04' W 093°27'2 4.8
2018-Feb-13 03:00N 30°04' W 093°30'2 4.9
2018-Feb-13 02:30N 30°04' W 093°33'3 5.0
2018-Feb-13 02:00N 30°04' W 093°36'3 5.5
2018-Feb-13 01:30N 30°03' W 093°39'3 5.1
2018-Feb-13 01:00N 30°03' W 093°42'1 2.8
2018-Feb-13 00:30N 30°03' W 093°44'3 5.1
2018-Feb-13 00:00N 30°01' W 093°45'3 5.8
2018-Feb-12 23:30N 29°59' W 093°48'3 6.2
2018-Feb-12 23:01N 29°58' W 093°51'3 6.4
2018-Feb-12 22:31N 29°55' W 093°53'4 7.4
2018-Feb-12 22:00N 29°52' W 093°56'3 6.5
2018-Feb-12 21:30N 29°49' W 093°58'3 5.2
2018-Feb-12 21:00N 29°48' W 094°00'2 5.0
2018-Feb-12 20:30N 29°46' W 094°03'2 4.9
2018-Feb-12 20:00N 29°45' W 094°05'2 4.9
2018-Feb-12 19:30N 29°43' W 094°07'3 5.0
2018-Feb-12 19:00N 29°41' W 094°09'2 5.0
2018-Feb-12 18:30N 29°41' W 094°12'2 4.8
2018-Feb-12 18:00N 29°40' W 094°15'2 4.7
2018-Feb-12 17:29N 29°39' W 094°17'2 4.5
2018-Feb-12 17:00N 29°38' W 094°19'2 4.7
2018-Feb-12 16:30N 29°36' W 094°22'2 3.9
2018-Feb-12 15:59N 29°36' W 094°24'2 4.1
2018-Feb-12 15:31N 29°34' W 094°25'3 4.6
2018-Feb-12 14:58N 29°33' W 094°28'2 3.6
2018-Feb-12 14:29N 29°32' W 094°29'3 4.6
2018-Feb-12 13:55N 29°31' W 094°32'18 3.3
2018-Feb-12 08:33N 29°30' W 094°52'0 6.7
2018-Feb-12 08:29N 29°30' W 094°52'3 6.1
2018-Feb-12 08:00N 29°32' W 094°54'3 6.1
2018-Feb-12 07:30N 29°35' W 094°56'3 5.6
2018-Feb-12 07:00N 29°37' W 094°59'2 4.8
2018-Feb-12 06:29N 29°37' W 095°01'0 0.1
2018-Feb-12 06:00N 29°37' W 095°01'0 0.0
2018-Feb-12 05:30N 29°37' W 095°01'0 0.0
2018-Feb-12 05:00N 29°37' W 095°01'0 0.0
2018-Feb-12 04:30N 29°37' W 095°01'0 0.0
2018-Feb-12 04:00N 29°37' W 095°01'0 0.0
2018-Feb-12 03:30N 29°37' W 095°01'0 0.0
2018-Feb-12 03:00N 29°37' W 095°01'0 0.0
2018-Feb-12 02:30N 29°37' W 095°01'0 0.0
2018-Feb-12 02:00N 29°37' W 095°01'0 0.0
2018-Feb-12 01:30N 29°37' W 095°01'0 0.0
2018-Feb-12 01:00N 29°37' W 095°01'0 0.0
2018-Feb-12 00:30N 29°37' W 095°01'0 0.2
2018-Feb-12 00:00N 29°37' W 095°01'0 0.3
2018-Feb-11 23:30N 29°37' W 095°01'0 0.0
2018-Feb-11 23:00N 29°37' W 095°01'0 0.0
2018-Feb-11 22:30N 29°37' W 095°01'0 0.0
2018-Feb-11 22:00N 29°37' W 095°01'0 0.0
2018-Feb-11 21:30N 29°37' W 095°01'0 0.0
2018-Feb-11 21:00N 29°37' W 095°01'0 0.0
2018-Feb-11 20:30N 29°37' W 095°01'0 0.0
2018-Feb-11 20:00N 29°37' W 095°01'0 0.0
2018-Feb-11 19:30N 29°37' W 095°01'0 0.0
2018-Feb-11 19:00N 29°37' W 095°01'0 0.0
2018-Feb-11 18:30N 29°37' W 095°01'0 0.0
2018-Feb-11 18:00N 29°37' W 095°01'0 0.0
2018-Feb-11 17:30N 29°37' W 095°01'0 0.0
2018-Feb-11 17:00N 29°37' W 095°01'0 0.0
2018-Feb-11 16:30N 29°37' W 095°01'0 0.0
2018-Feb-11 16:00N 29°37' W 095°01'0 0.0
2018-Feb-11 15:31N 29°37' W 095°01'0 0.0
2018-Feb-11 15:00N 29°37' W 095°01'0 0.0
2018-Feb-11 14:30N 29°37' W 095°01'0 0.0
2018-Feb-11 14:01N 29°37' W 095°01'0 0.0
2018-Feb-11 13:31N 29°37' W 095°01'0 0.3
2018-Feb-11 13:00N 29°37' W 095°01'0 0.0
2018-Feb-11 12:31N 29°37' W 095°01'0 0.3
2018-Feb-11 12:00N 29°37' W 095°01'0 0.3
2018-Feb-11 11:30N 29°37' W 095°01'0 0.0
2018-Feb-11 11:01N 29°37' W 095°01'0 0.0
2018-Feb-11 10:30N 29°37' W 095°01'0 0.0
2018-Feb-11 10:01N 29°37' W 095°01'0 0.0
2018-Feb-11 09:31N 29°37' W 095°01'0 0.0
2018-Feb-11 09:01N 29°37' W 095°01'0 0.0
2018-Feb-11 08:31N 29°37' W 095°01'0 0.0
2018-Feb-11 08:00N 29°37' W 095°01'0 0.0
2018-Feb-11 07:31N 29°37' W 095°01'0 0.0
2018-Feb-11 07:00N 29°37' W 095°01'0 0.0
2018-Feb-11 06:30N 29°37' W 095°01'0 0.0
2018-Feb-11 06:00N 29°37' W 095°01'0 0.0
2018-Feb-11 05:31N 29°37' W 095°01'0 0.0
2018-Feb-11 05:00N 29°37' W 095°01'0 0.0
2018-Feb-11 04:30N 29°37' W 095°01'0 0.0
2018-Feb-11 04:01N 29°37' W 095°01'0 0.0
2018-Feb-11 03:31N 29°37' W 095°01'0 0.0
2018-Feb-11 03:01N 29°37' W 095°01'0 0.0
2018-Feb-11 02:31N 29°37' W 095°01'0 0.0
2018-Feb-11 02:01N 29°37' W 095°01'0 0.0
2018-Feb-11 01:30N 29°37' W 095°01'0 0.0
2018-Feb-11 01:01N 29°37' W 095°01'0 0.0
2018-Feb-11 00:31N 29°37' W 095°01'0 0.0
2018-Feb-11 00:01N 29°37' W 095°01'0 0.0
2018-Feb-10 23:31N 29°37' W 095°01'0 0.0
2018-Feb-10 23:01N 29°37' W 095°01'0 0.0
2018-Feb-10 22:31N 29°37' W 095°01'0 0.0
2018-Feb-10 22:01N 29°37' W 095°01'0 0.0
2018-Feb-10 21:30N 29°37' W 095°01'0 0.0
2018-Feb-10 21:00N 29°37' W 095°01'0 0.0
2018-Feb-10 20:30N 29°37' W 095°01'0 0.0
2018-Feb-10 20:00N 29°37' W 095°01'0 0.3
2018-Feb-10 19:31N 29°37' W 095°01'0 0.3
2018-Feb-10 19:00N 29°37' W 095°01'0 0.1
2018-Feb-10 18:26N 29°37' W 095°01'1 2.0
2018-Feb-10 18:00N 29°37' W 095°00'3 5.4
2018-Feb-10 17:31N 29°37' W 094°57'3 5.9
2018-Feb-10 17:01N 29°34' W 094°56'3 6.4
2018-Feb-10 16:30N 29°32' W 094°53'3 6.1
2018-Feb-10 15:59N 29°29' W 094°52'7 4.0
2018-Feb-10 14:07N 29°24' W 094°45'1 4.9
2018-Feb-10 14:00N 29°24' W 094°45'0 0.4
2018-Feb-10 12:58N 29°24' W 094°45'0 0.0
2018-Feb-10 09:52N 29°24' W 094°45'0 0.0
2018-Feb-10 09:30N 29°24' W 094°45'0 0.0
2018-Feb-10 09:00N 29°24' W 094°45'0 0.0
2018-Feb-10 08:30N 29°24' W 094°45'0 0.0
2018-Feb-10 07:58N 29°24' W 094°45'0 0.0
2018-Feb-10 07:17N 29°24' W 094°45'0 0.0
2018-Feb-10 07:00N 29°24' W 094°45'0 0.0
2018-Feb-10 06:28N 29°24' W 094°45'0 0.0
2018-Feb-10 05:38N 29°24' W 094°45'0 0.0
2018-Feb-10 05:30N 29°24' W 094°45'0 0.0
2018-Feb-10 04:58N 29°24' W 094°45'0 0.0
2018-Feb-10 04:29N 29°24' W 094°45'0 0.0
2018-Feb-10 03:59N 29°24' W 094°45'  

Dump ship's entire track history